createdAt,value
2019-02-06T00:01:07.055Z,66.00
2019-02-06T00:03:35.417Z,72.87
2019-02-06T00:06:04.609Z,70.10
2019-02-06T00:08:32.837Z,61.27
2019-02-06T00:11:01.138Z,60.50
2019-02-06T00:13:29.986Z,60.57
2019-02-06T00:15:58.238Z,69.70
2019-02-06T00:18:27.241Z,61.57
2019-02-06T00:20:55.447Z,66.97
2019-02-06T00:23:23.635Z,55.53
2019-02-06T00:25:52.019Z,65.03
2019-02-06T00:28:20.151Z,55.40
2019-02-06T00:30:48.657Z,66.53
2019-02-06T00:33:17.009Z,57.67
2019-02-06T00:35:45.151Z,60.90
2019-02-06T00:38:13.298Z,64.53
2019-02-06T00:40:41.684Z,58.47
2019-02-06T00:43:09.964Z,65.87
2019-02-06T00:45:38.203Z,66.60
2019-02-06T00:48:06.432Z,55.87
2019-02-06T00:50:34.586Z,60.70
2019-02-06T00:53:02.737Z,63.13
2019-02-06T00:55:31.169Z,72.13
2019-02-06T00:57:59.429Z,71.73
2019-02-06T01:00:27.622Z,63.20
2019-02-06T01:02:56.143Z,66.80
2019-02-06T01:05:24.354Z,67.03
2019-02-06T01:07:52.505Z,62.17
2019-02-06T01:10:21.355Z,67.37
2019-02-06T01:12:49.606Z,62.90
2019-02-06T01:15:17.781Z,68.80
2019-02-06T01:17:46.026Z,88.00
2019-02-06T01:20:15.415Z,71.83
2019-02-06T01:22:43.627Z,73.00
2019-02-06T01:25:12.986Z,64.57
2019-02-06T01:27:41.122Z,63.60
2019-02-06T01:30:11.465Z,67.00
2019-02-06T01:32:39.802Z,66.90
2019-02-06T01:35:09.556Z,71.43
2019-02-06T01:37:37.808Z,76.37
2019-02-06T01:40:07.223Z,68.00
2019-02-06T01:42:35.422Z,62.80
2019-02-06T01:45:04.850Z,69.20
2019-02-06T01:47:33.035Z,65.27
2019-02-06T01:50:01.174Z,67.90
2019-02-06T01:52:29.491Z,78.10
2019-02-06T01:54:57.649Z,61.57
2019-02-06T01:57:25.789Z,69.57
2019-02-06T01:59:53.911Z,81.17
2019-02-06T02:02:22.237Z,55.57
2019-02-06T02:04:50.424Z,67.03
2019-02-06T02:07:18.650Z,54.97
2019-02-06T02:09:47.181Z,57.90
2019-02-06T02:12:15.441Z,52.50
2019-02-06T02:14:43.632Z,51.30
2019-02-06T02:17:11.959Z,47.83
2019-02-06T02:19:40.085Z,47.50
2019-02-06T02:22:08.301Z,47.97
2019-02-06T02:24:36.926Z,51.57
2019-02-06T02:27:05.410Z,56.33
2019-02-06T02:29:33.564Z,52.93
2019-02-06T02:32:01.991Z,51.27
2019-02-06T02:34:30.160Z,49.30
2019-02-06T02:36:58.331Z,49.63
2019-02-06T02:39:26.724Z,53.67
2019-02-06T02:41:54.905Z,54.40
2019-02-06T02:44:23.157Z,63.27
2019-02-06T02:46:51.538Z,48.87
2019-02-06T02:49:19.691Z,48.47
2019-02-06T02:51:47.869Z,48.30
2019-02-06T02:54:16.415Z,48.80
2019-02-06T02:56:44.546Z,51.00
2019-02-06T02:59:12.970Z,53.00
2019-02-06T03:01:45.708Z,53.83
2019-02-06T03:04:15.545Z,60.60
2019-02-06T03:06:43.790Z,49.07
2019-02-06T03:09:12.203Z,49.30
2019-02-06T03:11:40.642Z,50.67
2019-02-06T03:14:08.782Z,59.83
2019-02-06T03:16:37.020Z,48.43
2019-02-06T03:19:05.226Z,51.47
2019-02-06T03:21:33.335Z,58.90
2019-02-06T03:24:01.694Z,48.83
2019-02-06T03:26:29.872Z,48.57
2019-02-06T03:28:58.099Z,49.67
2019-02-06T03:31:26.767Z,49.37
2019-02-06T03:33:54.910Z,46.33
2019-02-06T03:36:23.090Z,50.63
2019-02-06T03:38:51.427Z,48.00
2019-02-06T03:41:19.583Z,47.83
2019-02-06T03:43:47.771Z,49.10
2019-02-06T03:46:15.927Z,53.60
2019-02-06T03:48:44.345Z,49.13
2019-02-06T03:51:12.482Z,61.73
2019-02-06T03:53:40.952Z,51.20
2019-02-06T03:56:09.139Z,50.33
2019-02-06T03:58:37.327Z,52.53
2019-02-06T04:01:05.650Z,50.53
2019-02-06T04:03:33.807Z,49.40
2019-02-06T04:06:02.210Z,48.37
2019-02-06T04:08:30.455Z,40.63
2019-02-06T04:10:58.993Z,49.47
2019-02-06T04:13:27.227Z,42.30
2019-02-06T04:15:55.886Z,53.23
2019-02-06T04:18:24.029Z,44.43
2019-02-06T04:20:52.174Z,54.33
2019-02-06T04:23:20.399Z,44.37
2019-02-06T04:25:48.536Z,51.07
2019-02-06T04:28:16.712Z,43.33
2019-02-06T04:30:45.071Z,50.37
2019-02-06T04:33:13.394Z,49.43
2019-02-06T04:35:41.625Z,49.10
2019-02-06T04:38:10.272Z,54.80
2019-02-06T04:40:38.438Z,47.60
2019-02-06T04:43:06.569Z,48.47
2019-02-06T04:45:34.825Z,45.10
2019-02-06T04:48:02.977Z,47.87
2019-02-06T04:50:31.128Z,45.07
2019-02-06T04:52:59.283Z,45.20
2019-02-06T04:55:27.810Z,49.77
2019-02-06T04:57:55.956Z,46.73
2019-02-06T05:00:27.587Z,42.67
2019-02-06T05:02:55.737Z,51.60
2019-02-06T05:05:23.880Z,46.37
2019-02-06T05:07:52.097Z,46.93
2019-02-06T05:10:20.338Z,45.37
2019-02-06T05:12:49.155Z,61.13
2019-02-06T05:15:17.939Z,54.67
2019-02-06T05:17:46.178Z,45.23
2019-02-06T05:20:18.877Z,47.30
2019-02-06T05:22:47.195Z,49.77
2019-02-06T05:25:15.502Z,48.70
2019-02-06T05:27:43.920Z,52.30
2019-02-06T05:30:12.487Z,53.53
2019-02-06T05:32:42.945Z,47.30
2019-02-06T05:35:10.604Z,51.23
2019-02-06T05:37:39.120Z,53.73
2019-02-06T05:40:08.823Z,57.13
2019-02-06T05:42:37.274Z,68.20
2019-02-06T05:45:07.224Z,56.70
2019-02-06T05:47:35.371Z,54.00
2019-02-06T05:50:04.682Z,79.77
2019-02-06T05:52:32.846Z,78.10
2019-02-06T05:55:04.288Z,68.63
2019-02-06T05:59:52.860Z,58.13
2019-02-06T06:02:21.492Z,64.63
2019-02-06T06:04:49.654Z,78.17
2019-02-06T06:07:17.914Z,66.03
2019-02-06T06:09:46.117Z,68.60
2019-02-06T06:12:14.348Z,68.53
2019-02-06T06:15:01.844Z,66.33
2019-02-06T06:17:30.154Z,63.03
2019-02-06T06:19:58.334Z,61.63
2019-02-06T06:22:26.760Z,64.97
2019-02-06T06:24:54.899Z,66.57
2019-02-06T06:27:23.037Z,60.73
2019-02-06T06:29:51.209Z,59.83
2019-02-06T06:32:19.365Z,58.97
2019-02-06T06:34:47.560Z,62.10
2019-02-06T06:37:15.751Z,59.73
2019-02-06T06:39:44.031Z,59.10
2019-02-06T06:42:12.197Z,56.77
2019-02-06T06:44:40.418Z,61.53
2019-02-06T06:47:08.558Z,66.50
2019-02-06T06:49:37.065Z,61.63
2019-02-06T06:52:05.405Z,68.50
2019-02-06T06:54:33.589Z,63.17
2019-02-06T06:57:01.737Z,76.07
2019-02-06T06:59:29.940Z,77.07
2019-02-06T07:01:58.192Z,71.50
2019-02-06T07:04:26.317Z,66.57
2019-02-06T07:06:55.117Z,83.50
2019-02-06T07:09:23.249Z,85.00
2019-02-06T07:11:51.433Z,71.00
2019-02-06T07:14:19.722Z,85.87
2019-02-06T07:16:47.915Z,111.97
2019-02-06T07:19:16.256Z,127.90
2019-02-06T07:21:44.733Z,89.03
2019-02-06T07:24:12.878Z,162.37
2019-02-06T07:26:41.017Z,94.23
2019-02-06T07:29:09.170Z,102.80
2019-02-06T07:31:37.353Z,83.57
2019-02-06T07:34:05.597Z,81.30
2019-02-06T07:39:26.405Z,101.13
2019-02-06T07:41:54.586Z,116.03
2019-02-06T07:44:22.785Z,117.00
2019-02-06T07:46:51.037Z,95.00
2019-02-06T07:49:19.170Z,112.67
2019-02-06T07:51:50.403Z,99.90
2019-02-06T07:54:17.571Z,105.73
2019-02-06T07:59:26.143Z,112.77
2019-02-06T08:01:54.306Z,102.13
2019-02-06T08:04:22.525Z,109.47
2019-02-06T08:06:50.772Z,97.57
2019-02-06T08:09:18.916Z,97.57
2019-02-06T08:11:47.165Z,94.60
2019-02-06T08:14:15.433Z,93.07
2019-02-06T08:16:43.618Z,110.57
2019-02-06T08:19:11.803Z,96.17
2019-02-06T08:21:40.247Z,104.37
2019-02-06T08:24:08.426Z,80.40
2019-02-06T08:26:36.593Z,71.43
2019-02-06T08:29:04.826Z,69.90
2019-02-06T08:31:33.018Z,68.57
2019-02-06T08:34:01.205Z,67.17
2019-02-06T08:36:29.717Z,55.53
2019-02-06T08:38:58.137Z,72.57
2019-02-06T08:41:26.269Z,53.67
2019-02-06T08:43:54.422Z,49.57
2019-02-06T08:46:22.562Z,56.97
2019-02-06T08:48:50.715Z,55.60
2019-02-06T08:51:18.952Z,56.13
2019-02-06T08:53:47.071Z,51.07
2019-02-06T08:56:15.416Z,55.33
2019-02-06T08:58:43.726Z,60.63
2019-02-06T09:01:12.048Z,58.97
2019-02-06T09:03:40.199Z,62.90
2019-02-06T09:06:08.655Z,60.03
2019-02-06T09:11:00.016Z,43.03
2019-02-06T09:13:28.530Z,44.67
2019-02-06T09:15:56.716Z,47.60
2019-02-06T09:18:25.061Z,45.00
2019-02-06T09:20:53.204Z,41.07
2019-02-06T09:23:21.380Z,41.10
2019-02-06T09:25:49.679Z,44.97
2019-02-06T09:28:17.828Z,43.13
2019-02-06T09:30:46.361Z,40.10
2019-02-06T09:33:14.647Z,37.63
2019-02-06T09:35:42.854Z,41.13
2019-02-06T09:38:11.092Z,41.03
2019-02-06T09:40:58.827Z,53.90
2019-02-06T09:43:27.645Z,40.37
2019-02-06T09:45:57.146Z,45.87
2019-02-06T09:48:25.406Z,46.30
2019-02-06T09:50:53.566Z,42.83
2019-02-06T09:53:21.752Z,48.10
2019-02-06T09:55:51.340Z,49.20
2019-02-06T09:58:19.962Z,42.73
2019-02-06T10:00:48.354Z,43.93
2019-02-06T10:03:16.531Z,42.97
2019-02-06T10:05:44.708Z,38.57
2019-02-06T10:08:12.838Z,39.47
2019-02-06T10:10:41.223Z,39.53
2019-02-06T10:13:09.397Z,44.23
2019-02-06T10:15:38.195Z,41.13
2019-02-06T10:18:07.169Z,43.37
2019-02-06T10:20:39.635Z,39.40
2019-02-06T10:23:08.161Z,43.50
2019-02-06T10:25:38.199Z,47.27
2019-02-06T10:28:06.442Z,44.47
2019-02-06T10:30:39.153Z,42.00
2019-02-06T10:33:07.353Z,43.50
2019-02-06T10:35:35.542Z,39.93
2019-02-06T10:38:04.629Z,46.93
2019-02-06T10:40:33.097Z,43.67
2019-02-06T10:43:01.538Z,44.80
2019-02-06T10:45:49.364Z,48.97
2019-02-06T10:48:17.514Z,46.33
2019-02-06T10:50:46.621Z,41.20
2019-02-06T10:53:14.934Z,36.60
2019-02-06T10:55:43.077Z,36.33
2019-02-06T10:58:11.422Z,36.47
2019-02-06T11:00:59.271Z,35.03
2019-02-06T11:03:27.558Z,34.30
2019-02-06T11:05:55.892Z,32.73
2019-02-06T11:08:24.213Z,35.80
2019-02-06T11:10:52.442Z,36.03
2019-02-06T11:13:20.626Z,42.20
2019-02-06T11:15:49.110Z,46.37
2019-02-06T11:18:17.271Z,45.80
2019-02-06T11:20:45.478Z,47.83
2019-02-06T11:23:13.829Z,49.07
2019-02-06T11:25:41.994Z,46.87
2019-02-06T11:28:10.319Z,60.67
2019-02-06T11:30:39.604Z,52.60
2019-02-06T11:33:08.094Z,55.13
2019-02-06T11:35:36.368Z,52.80
2019-02-06T11:38:05.388Z,58.53
2019-02-06T11:40:33.633Z,60.13
2019-02-06T11:43:01.849Z,58.83
2019-02-06T11:45:33.680Z,57.97
2019-02-06T11:48:21.318Z,61.33
2019-02-06T11:51:14.873Z,57.70
2019-02-06T11:53:43.258Z,58.73
2019-02-06T11:56:11.540Z,55.60
2019-02-06T11:58:59.121Z,55.67
2019-02-06T12:01:47.308Z,51.63
2019-02-06T12:04:15.727Z,54.73
2019-02-06T12:06:43.979Z,55.57
2019-02-06T12:09:12.378Z,60.43
2019-02-06T12:11:40.800Z,61.03
2019-02-06T12:14:08.931Z,54.90
2019-02-06T12:16:37.127Z,52.13
2019-02-06T12:19:05.515Z,58.60
2019-02-06T12:21:33.753Z,57.17
2019-02-06T12:24:02.040Z,60.80
2019-02-06T12:26:30.568Z,57.23
2019-02-06T12:28:58.757Z,55.20
2019-02-06T12:31:26.917Z,54.83
2019-02-06T12:33:55.177Z,51.23
2019-02-06T12:36:23.437Z,55.23
2019-02-06T12:38:53.875Z,49.87
2019-02-06T12:41:41.010Z,49.63
2019-02-06T12:44:09.419Z,54.77
2019-02-06T12:46:37.643Z,50.43
2019-02-06T12:49:06.101Z,50.03
2019-02-06T12:51:34.354Z,46.13
2019-02-06T12:54:02.602Z,47.10
2019-02-06T12:56:30.920Z,47.70
2019-02-06T12:58:59.147Z,50.20
2019-02-06T13:01:46.738Z,46.80
2019-02-06T13:04:14.928Z,47.10
2019-02-06T13:06:43.345Z,47.47
2019-02-06T13:09:11.833Z,47.20
2019-02-06T13:11:40.154Z,47.33
2019-02-06T13:14:08.405Z,41.17
2019-02-06T13:16:36.715Z,41.85
2019-02-06T13:19:04.854Z,39.77
2019-02-06T13:21:52.664Z,42.60
2019-02-06T13:24:20.846Z,38.07
2019-02-06T13:26:49.036Z,39.77
2019-02-06T13:29:17.316Z,38.63
2019-02-06T13:31:45.654Z,38.33
2019-02-06T13:34:13.870Z,36.13
2019-02-06T13:36:42.153Z,32.57
2019-02-06T13:39:10.401Z,37.20
2019-02-06T13:41:38.604Z,36.53
2019-02-06T13:44:06.946Z,38.97
2019-02-06T13:46:35.808Z,36.70
2019-02-06T13:49:04.215Z,36.17
2019-02-06T13:51:32.617Z,32.97
2019-02-06T13:54:00.888Z,35.83
2019-02-06T13:56:48.749Z,37.13
2019-02-06T13:59:42.834Z,39.67
2019-02-06T14:02:11.177Z,34.57
2019-02-06T14:04:39.397Z,35.00
2019-02-06T14:07:07.547Z,30.17
2019-02-06T14:09:36.206Z,36.33
2019-02-06T14:12:04.414Z,36.60
2019-02-06T14:14:32.637Z,30.27
2019-02-06T14:17:01.121Z,30.07
2019-02-06T14:19:48.640Z,31.37
2019-02-06T14:22:17.882Z,33.20
2019-02-06T14:24:46.305Z,33.60
2019-02-06T14:27:16.074Z,33.00
2019-02-06T14:30:03.710Z,32.03
2019-02-06T14:32:51.650Z,31.90
2019-02-06T14:35:21.635Z,32.50
2019-02-06T14:38:09.206Z,28.47
2019-02-06T14:40:48.808Z,28.33
2019-02-06T14:43:18.554Z,32.63
2019-02-06T14:46:13.462Z,32.77
2019-02-06T14:54:19.794Z,29.83
2019-02-06T14:57:07.353Z,33.37
2019-02-06T14:59:54.914Z,31.53
2019-02-06T15:05:37.530Z,35.17
2019-02-06T15:08:13.493Z,38.53
2019-02-06T15:11:01.140Z,34.43
2019-02-06T15:13:48.643Z,36.67
2019-02-06T15:16:36.376Z,30.90
2019-02-06T15:19:08.794Z,31.43
2019-02-06T15:22:00.968Z,27.40
2019-02-06T15:24:30.698Z,36.90
2019-02-06T15:27:03.294Z,28.80
2019-02-06T15:29:36.075Z,27.00
2019-02-06T15:32:23.648Z,31.77
2019-02-06T15:35:11.687Z,32.80
2019-02-06T15:40:57.236Z,24.87
2019-02-06T15:43:50.009Z,30.93
2019-02-06T15:46:26.423Z,31.07
2019-02-06T15:49:13.988Z,33.10
2019-02-06T15:51:43.716Z,26.67
2019-02-06T15:57:20.466Z,33.83
2019-02-06T16:00:12.422Z,31.30
2019-02-06T16:03:00.097Z,33.30
2019-02-06T16:05:49.475Z,32.43
2019-02-06T16:08:37.183Z,33.43
2019-02-06T16:11:25.072Z,33.97
2019-02-06T16:13:57.717Z,38.40
2019-02-06T16:16:36.976Z,37.40
2019-02-06T16:19:12.646Z,38.00
2019-02-06T16:21:52.795Z,32.27
2019-02-06T16:24:34.714Z,33.33
2019-02-06T16:27:24.084Z,34.47
2019-02-06T16:30:11.559Z,34.57
2019-02-06T16:32:53.593Z,41.80
2019-02-06T16:35:35.330Z,38.73
2019-02-06T16:38:14.250Z,37.70
2019-02-06T16:41:19.782Z,49.93
2019-02-06T16:44:07.338Z,34.53
2019-02-06T16:46:57.857Z,34.23
2019-02-06T16:49:33.656Z,40.57
2019-02-06T16:52:21.255Z,42.33
2019-02-06T16:55:08.787Z,40.70
2019-02-06T16:57:44.682Z,34.97
2019-02-06T17:00:32.166Z,43.23
2019-02-06T17:03:17.417Z,40.20
2019-02-06T17:05:53.046Z,37.90
2019-02-06T17:08:40.599Z,29.87
2019-02-06T17:11:10.288Z,33.47
2019-02-06T17:13:43.000Z,31.57
2019-02-06T17:16:30.679Z,32.20
2019-02-06T17:19:22.735Z,35.10
2019-02-06T17:22:10.549Z,31.90
2019-02-06T17:24:46.400Z,37.17
2019-02-06T17:27:16.152Z,28.00
2019-02-06T17:29:51.889Z,29.80
2019-02-06T17:32:31.028Z,31.20
2019-02-06T17:35:06.876Z,39.00
2019-02-06T17:37:36.630Z,31.67
2019-02-06T17:40:12.214Z,35.73
2019-02-06T17:43:16.333Z,36.83
2019-02-06T17:49:01.116Z,32.47
2019-02-06T17:51:48.971Z,31.43
2019-02-06T17:54:19.030Z,32.47
2019-02-06T17:59:55.589Z,40.87
2019-02-06T18:02:23.738Z,30.77
2019-02-06T18:04:51.892Z,26.13
2019-02-06T18:07:20.135Z,36.80
2019-02-06T18:09:48.266Z,26.83
2019-02-06T18:12:25.965Z,30.50
2019-02-06T18:14:46.421Z,54.23
2019-02-06T18:17:14.940Z,30.83
2019-02-06T18:19:43.154Z,30.77
2019-02-06T18:22:11.910Z,36.20
2019-02-06T18:24:40.110Z,33.83
2019-02-06T18:27:08.251Z,31.53
2019-02-06T18:29:36.523Z,22.00
2019-02-06T18:32:04.735Z,24.53
2019-02-06T18:34:32.873Z,28.47
2019-02-06T18:37:01.366Z,23.90
2019-02-06T18:39:29.508Z,49.10
2019-02-06T18:41:57.650Z,35.43
2019-02-06T18:44:25.909Z,30.63
2019-02-06T18:46:54.183Z,35.53
2019-02-06T18:49:22.357Z,28.37
2019-02-06T18:51:50.735Z,66.93
2019-02-06T18:54:19.074Z,30.40
2019-02-06T18:56:47.542Z,32.23
2019-02-06T18:59:15.910Z,28.63
2019-02-06T19:01:44.122Z,32.50
2019-02-06T19:04:12.425Z,30.50
2019-02-06T19:06:40.774Z,34.67
2019-02-06T19:09:10.562Z,31.13
2019-02-06T19:11:38.892Z,33.40
2019-02-06T19:14:07.396Z,32.20
2019-02-06T19:16:35.898Z,27.47
2019-02-06T19:19:04.598Z,30.57
2019-02-06T19:21:33.114Z,28.43
2019-02-06T19:24:01.338Z,38.07
2019-02-06T19:26:29.592Z,34.70
2019-02-06T19:28:58.042Z,33.87
2019-02-06T19:31:26.293Z,37.77
2019-02-06T19:33:54.501Z,36.87
2019-02-06T19:36:23.129Z,31.27
2019-02-06T19:38:51.348Z,31.60
2019-02-06T19:41:19.563Z,33.30
2019-02-06T19:43:47.924Z,39.20
2019-02-06T19:46:16.082Z,35.77
2019-02-06T19:48:44.321Z,37.43
2019-02-06T19:51:12.601Z,27.83
2019-02-06T19:54:00.258Z,27.00
2019-02-06T19:56:28.773Z,28.27
2019-02-06T19:58:56.898Z,27.13
2019-02-06T20:01:25.097Z,25.17
2019-02-06T20:03:53.568Z,30.90
2019-02-06T20:06:41.648Z,34.27
2019-02-06T20:12:11.919Z,29.73
2019-02-06T20:14:40.426Z,34.03
2019-02-06T20:17:08.658Z,27.47
2019-02-06T20:19:56.270Z,29.90
2019-02-06T20:22:24.478Z,29.83
2019-02-06T20:24:52.653Z,29.97
2019-02-06T20:27:20.912Z,28.83
2019-02-06T20:29:49.331Z,39.33
2019-02-06T20:32:37.031Z,24.07
2019-02-06T20:35:06.780Z,27.53
2019-02-06T20:37:34.966Z,26.40
2019-02-06T20:40:04.724Z,30.13
2019-02-06T20:42:52.524Z,26.93
2019-02-06T20:45:21.155Z,33.30
2019-02-06T20:47:49.287Z,27.63
2019-02-06T20:50:18.954Z,47.93
2019-02-06T20:52:47.257Z,36.77
2019-02-06T20:55:16.086Z,27.17
2019-02-06T20:57:44.291Z,28.60
2019-02-06T21:00:14.204Z,32.47
2019-02-06T21:02:42.414Z,27.53
2019-02-06T21:05:31.547Z,39.73
2019-02-06T21:08:00.056Z,30.87
2019-02-06T21:10:29.846Z,26.37
2019-02-06T21:12:58.010Z,39.47
2019-02-06T21:15:26.187Z,34.37
2019-02-06T21:17:54.358Z,35.97
2019-02-06T21:20:23.119Z,40.03
2019-02-06T21:22:51.461Z,69.20
2019-02-06T21:25:23.612Z,38.50
2019-02-06T21:27:51.945Z,40.27
2019-02-06T21:30:39.443Z,34.87
2019-02-06T21:33:07.877Z,33.30
2019-02-06T21:35:55.576Z,37.63
2019-02-06T21:41:23.062Z,42.60
2019-02-06T21:43:51.251Z,37.37
2019-02-06T21:46:19.588Z,37.30
2019-02-06T21:48:47.821Z,36.17
2019-02-06T21:51:16.047Z,56.63
2019-02-06T21:53:44.264Z,35.27
2019-02-06T21:56:12.430Z,33.10
2019-02-06T21:58:40.845Z,47.07
2019-02-06T22:01:09.014Z,36.07
2019-02-06T22:03:37.298Z,39.40
2019-02-06T22:06:05.424Z,43.40
2019-02-06T22:08:33.596Z,68.03
2019-02-06T22:11:01.960Z,44.17
2019-02-06T22:13:30.190Z,61.13
2019-02-06T22:15:58.372Z,37.97
2019-02-06T22:18:26.690Z,33.53
2019-02-06T22:20:54.955Z,30.40
2019-02-06T22:23:23.360Z,31.57
2019-02-06T22:25:51.636Z,54.93
2019-02-06T22:28:19.942Z,41.03
2019-02-06T22:30:52.754Z,47.73
2019-02-06T22:33:21.167Z,42.27
2019-02-06T22:35:49.390Z,62.17
2019-02-06T22:38:17.534Z,33.70
2019-02-06T22:40:45.857Z,35.80
2019-02-06T22:43:14.549Z,33.20
2019-02-06T22:45:43.030Z,33.97
2019-02-06T22:48:11.366Z,54.90
2019-02-06T22:50:39.606Z,48.53
2019-02-06T22:53:07.855Z,32.53
2019-02-06T22:55:55.415Z,35.50
2019-02-06T22:58:23.899Z,41.67
2019-02-06T23:00:55.281Z,36.43
2019-02-06T23:03:42.934Z,29.67
2019-02-06T23:06:11.248Z,28.80
2019-02-06T23:08:59.226Z,28.30
2019-02-06T23:11:27.629Z,53.23
2019-02-06T23:13:55.820Z,41.53
2019-02-06T23:16:24.099Z,34.97
2019-02-06T23:18:52.266Z,29.83
2019-02-06T23:21:41.694Z,34.20
2019-02-06T23:24:09.893Z,34.60
2019-02-06T23:26:57.433Z,34.17
2019-02-06T23:29:25.914Z,35.63
2019-02-06T23:31:54.146Z,26.93
2019-02-06T23:34:22.437Z,28.13
2019-02-06T23:36:50.586Z,22.07
2019-02-06T23:39:38.129Z,22.47
2019-02-06T23:42:06.297Z,22.53
2019-02-06T23:44:34.514Z,28.53
2019-02-06T23:47:02.812Z,25.33
2019-02-06T23:49:50.348Z,25.77
2019-02-06T23:52:20.536Z,33.23
2019-02-06T23:55:08.091Z,26.17
